sensor_id;sensor_type;location;lat;lon;timestamp;P1;durP1;ratioP1;P2;durP2;ratioP2
22415;SDS011;12204;50.600;4.608;2023-04-06T00:02:44;8.95;;;2.70;;
22415;SDS011;12204;50.600;4.608;2023-04-06T00:07:48;6.88;;;2.40;;
22415;SDS011;12204;50.600;4.608;2023-04-06T00:12:54;7.20;;;2.60;;
22415;SDS011;12204;50.600;4.608;2023-04-06T00:17:58;8.80;;;2.70;;
22415;SDS011;12204;50.600;4.608;2023-04-06T00:23:02;6.53;;;2.40;;
22415;SDS011;12204;50.600;4.608;2023-04-06T00:28:08;7.72;;;2.70;;
22415;SDS011;12204;50.600;4.608;2023-04-06T00:33:11;8.07;;;2.60;;
22415;SDS011;12204;50.600;4.608;2023-04-06T00:38:15;7.90;;;2.60;;
22415;SDS011;12204;50.600;4.608;2023-04-06T00:43:20;5.97;;;2.42;;
22415;SDS011;12204;50.600;4.608;2023-04-06T00:48:25;7.63;;;2.50;;
22415;SDS011;12204;50.600;4.608;2023-04-06T00:53:29;5.60;;;2.38;;
22415;SDS011;12204;50.600;4.608;2023-04-06T00:58:36;7.15;;;2.50;;
22415;SDS011;12204;50.600;4.608;2023-04-06T01:03:42;6.47;;;2.60;;
22415;SDS011;12204;50.600;4.608;2023-04-06T01:08:50;7.18;;;2.55;;
22415;SDS011;12204;50.600;4.608;2023-04-06T01:13:57;6.57;;;2.63;;
22415;SDS011;12204;50.600;4.608;2023-04-06T01:19:08;6.75;;;2.58;;
22415;SDS011;12204;50.600;4.608;2023-04-06T01:24:20;5.45;;;2.33;;
22415;SDS011;12204;50.600;4.608;2023-04-06T01:29:35;6.93;;;2.67;;
22415;SDS011;12204;50.600;4.608;2023-04-06T01:34:42;6.20;;;2.65;;
22415;SDS011;12204;50.600;4.608;2023-04-06T01:39:47;6.15;;;2.20;;
22415;SDS011;12204;50.600;4.608;2023-04-06T01:45:01;6.40;;;2.50;;
22415;SDS011;12204;50.600;4.608;2023-04-06T01:50:05;7.30;;;2.58;;
22415;SDS011;12204;50.600;4.608;2023-04-06T01:55:17;7.47;;;2.70;;
22415;SDS011;12204;50.600;4.608;2023-04-06T02:00:43;6.68;;;2.40;;
22415;SDS011;12204;50.600;4.608;2023-04-06T02:05:48;6.25;;;2.38;;
22415;SDS011;12204;50.600;4.608;2023-04-06T02:11:00;6.60;;;2.60;;
22415;SDS011;12204;50.600;4.608;2023-04-06T02:16:08;5.53;;;2.38;;
22415;SDS011;12204;50.600;4.608;2023-04-06T02:21:12;7.32;;;2.60;;
22415;SDS011;12204;50.600;4.608;2023-04-06T02:26:22;5.45;;;2.20;;
22415;SDS011;12204;50.600;4.608;2023-04-06T02:31:26;6.00;;;2.15;;
22415;SDS011;12204;50.600;4.608;2023-04-06T02:36:30;6.28;;;2.35;;
22415;SDS011;12204;50.600;4.608;2023-04-06T02:41:35;5.50;;;2.22;;
22415;SDS011;12204;50.600;4.608;2023-04-06T02:46:40;6.72;;;2.40;;
22415;SDS011;12204;50.600;4.608;2023-04-06T02:51:43;6.70;;;2.35;;
22415;SDS011;12204;50.600;4.608;2023-04-06T02:56:59;6.43;;;2.50;;
22415;SDS011;12204;50.600;4.608;2023-04-06T03:02:12;5.70;;;2.33;;
22415;SDS011;12204;50.600;4.608;2023-04-06T03:07:17;7.82;;;2.40;;
22415;SDS011;12204;50.600;4.608;2023-04-06T03:12:22;6.00;;;2.30;;
22415;SDS011;12204;50.600;4.608;2023-04-06T03:17:49;7.75;;;2.63;;
22415;SDS011;12204;50.600;4.608;2023-04-06T03:23:06;5.25;;;2.10;;
22415;SDS011;12204;50.600;4.608;2023-04-06T03:28:15;6.00;;;2.38;;
22415;SDS011;12204;50.600;4.608;2023-04-06T03:33:31;6.77;;;2.50;;
22415;SDS011;12204;50.600;4.608;2023-04-06T03:38:35;5.93;;;2.28;;
22415;SDS011;12204;50.600;4.608;2023-04-06T03:43:47;5.47;;;2.15;;
22415;SDS011;12204;50.600;4.608;2023-04-06T03:48:51;5.38;;;2.15;;
22415;SDS011;12204;50.600;4.608;2023-04-06T03:53:57;5.65;;;2.28;;
22415;SDS011;12204;50.600;4.608;2023-04-06T03:59:02;5.30;;;2.25;;
22415;SDS011;12204;50.600;4.608;2023-04-06T04:04:07;6.10;;;2.30;;
22415;SDS011;12204;50.600;4.608;2023-04-06T04:09:10;5.65;;;2.38;;
22415;SDS011;12204;50.600;4.608;2023-04-06T04:14:15;5.80;;;2.22;;
22415;SDS011;12204;50.600;4.608;2023-04-06T04:19:19;6.13;;;2.30;;
22415;SDS011;12204;50.600;4.608;2023-04-06T04:24:23;5.70;;;2.40;;
22415;SDS011;12204;50.600;4.608;2023-04-06T04:29:28;5.78;;;2.00;;
22415;SDS011;12204;50.600;4.608;2023-04-06T04:34:36;6.00;;;2.30;;
22415;SDS011;12204;50.600;4.608;2023-04-06T04:39:45;5.80;;;2.20;;
22415;SDS011;12204;50.600;4.608;2023-04-06T04:44:51;5.63;;;2.10;;
22415;SDS011;12204;50.600;4.608;2023-04-06T04:50:06;5.47;;;2.10;;
22415;SDS011;12204;50.600;4.608;2023-04-06T04:55:15;5.50;;;2.25;;
22415;SDS011;12204;50.600;4.608;2023-04-06T05:00:24;5.82;;;2.22;;
22415;SDS011;12204;50.600;4.608;2023-04-06T05:05:31;4.80;;;1.90;;
22415;SDS011;12204;50.600;4.608;2023-04-06T05:10:36;5.43;;;1.95;;
22415;SDS011;12204;50.600;4.608;2023-04-06T05:15:41;5.18;;;2.28;;
22415;SDS011;12204;50.600;4.608;2023-04-06T05:20:55;5.88;;;2.20;;
22415;SDS011;12204;50.600;4.608;2023-04-06T05:26:13;4.97;;;2.10;;
22415;SDS011;12204;50.600;4.608;2023-04-06T05:31:19;4.63;;;1.92;;
22415;SDS011;12204;50.600;4.608;2023-04-06T05:36:25;5.15;;;1.98;;
22415;SDS011;12204;50.600;4.608;2023-04-06T05:41:30;5.63;;;2.05;;
22415;SDS011;12204;50.600;4.608;2023-04-06T05:46:36;4.53;;;1.90;;
22415;SDS011;12204;50.600;4.608;2023-04-06T05:51:42;5.43;;;2.00;;
22415;SDS011;12204;50.600;4.608;2023-04-06T05:56:45;4.45;;;1.75;;
22415;SDS011;12204;50.600;4.608;2023-04-06T06:01:51;5.85;;;2.00;;
22415;SDS011;12204;50.600;4.608;2023-04-06T06:06:55;5.60;;;2.08;;
22415;SDS011;12204;50.600;4.608;2023-04-06T06:12:11;5.43;;;2.03;;
22415;SDS011;12204;50.600;4.608;2023-04-06T06:17:17;5.10;;;2.00;;
22415;SDS011;12204;50.600;4.608;2023-04-06T06:22:22;5.10;;;2.05;;
22415;SDS011;12204;50.600;4.608;2023-04-06T06:27:25;5.28;;;1.75;;
22415;SDS011;12204;50.600;4.608;2023-04-06T06:32:31;4.63;;;1.90;;
22415;SDS011;12204;50.600;4.608;2023-04-06T06:37:36;5.40;;;1.95;;
22415;SDS011;12204;50.600;4.608;2023-04-06T06:42:41;5.15;;;1.92;;
22415;SDS011;12204;50.600;4.608;2023-04-06T06:48:07;4.60;;;1.90;;
22415;SDS011;12204;50.600;4.608;2023-04-06T06:53:14;5.68;;;1.88;;
22415;SDS011;12204;50.600;4.608;2023-04-06T06:58:18;5.53;;;1.90;;
22415;SDS011;12204;50.600;4.608;2023-04-06T07:03:24;5.03;;;1.80;;
22415;SDS011;12204;50.600;4.608;2023-04-06T07:08:28;4.75;;;1.80;;
22415;SDS011;12204;50.600;4.608;2023-04-06T07:13:32;4.65;;;1.80;;
22415;SDS011;12204;50.600;4.608;2023-04-06T07:18:38;4.53;;;1.70;;
22415;SDS011;12204;50.600;4.608;2023-04-06T07:23:41;4.55;;;1.70;;
22415;SDS011;12204;50.600;4.608;2023-04-06T07:28:45;4.55;;;1.73;;
22415;SDS011;12204;50.600;4.608;2023-04-06T07:33:51;4.75;;;1.90;;
22415;SDS011;12204;50.600;4.608;2023-04-06T07:38:54;4.60;;;1.70;;
22415;SDS011;12204;50.600;4.608;2023-04-06T07:43:58;4.53;;;1.65;;
22415;SDS011;12204;50.600;4.608;2023-04-06T07:49:04;5.07;;;1.73;;
22415;SDS011;12204;50.600;4.608;2023-04-06T07:54:09;6.40;;;1.80;;
22415;SDS011;12204;50.600;4.608;2023-04-06T07:59:13;4.75;;;1.90;;
22415;SDS011;12204;50.600;4.608;2023-04-06T08:04:17;4.90;;;1.80;;
22415;SDS011;12204;50.600;4.608;2023-04-06T08:09:22;5.65;;;1.80;;
22415;SDS011;12204;50.600;4.608;2023-04-06T08:14:26;4.45;;;1.67;;
22415;SDS011;12204;50.600;4.608;2023-04-06T08:19:31;4.85;;;1.67;;
22415;SDS011;12204;50.600;4.608;2023-04-06T08:24:34;3.83;;;1.50;;
22415;SDS011;12204;50.600;4.608;2023-04-06T08:29:38;5.38;;;1.90;;
22415;SDS011;12204;50.600;4.608;2023-04-06T08:34:43;5.05;;;1.83;;
22415;SDS011;12204;50.600;4.608;2023-04-06T08:39:47;4.35;;;1.65;;
22415;SDS011;12204;50.600;4.608;2023-04-06T08:44:50;5.07;;;1.80;;
22415;SDS011;12204;50.600;4.608;2023-04-06T08:49:56;3.92;;;1.80;;
22415;SDS011;12204;50.600;4.608;2023-04-06T08:55:01;4.60;;;1.80;;
22415;SDS011;12204;50.600;4.608;2023-04-06T09:00:05;5.18;;;1.80;;
22415;SDS011;12204;50.600;4.608;2023-04-06T09:05:13;3.87;;;1.67;;
22415;SDS011;12204;50.600;4.608;2023-04-06T09:10:17;4.28;;;1.67;;
22415;SDS011;12204;50.600;4.608;2023-04-06T09:15:22;3.88;;;1.60;;
22415;SDS011;12204;50.600;4.608;2023-04-06T09:20:27;4.25;;;1.70;;
22415;SDS011;12204;50.600;4.608;2023-04-06T09:25:30;3.72;;;1.60;;
22415;SDS011;12204;50.600;4.608;2023-04-06T09:30:34;4.43;;;1.55;;
22415;SDS011;12204;50.600;4.608;2023-04-06T09:35:41;4.80;;;1.80;;
22415;SDS011;12204;50.600;4.608;2023-04-06T09:40:52;4.80;;;1.77;;
22415;SDS011;12204;50.600;4.608;2023-04-06T09:46:02;3.90;;;1.70;;
22415;SDS011;12204;50.600;4.608;2023-04-06T09:51:08;4.00;;;1.70;;
22415;SDS011;12204;50.600;4.608;2023-04-06T09:56:17;5.32;;;1.63;;
22415;SDS011;12204;50.600;4.608;2023-04-06T10:01:28;4.20;;;1.80;;
22415;SDS011;12204;50.600;4.608;2023-04-06T10:06:36;4.68;;;1.73;;
22415;SDS011;12204;50.600;4.608;2023-04-06T10:11:41;4.35;;;1.63;;
22415;SDS011;12204;50.600;4.608;2023-04-06T10:16:46;4.32;;;1.60;;
22415;SDS011;12204;50.600;4.608;2023-04-06T10:21:54;4.05;;;1.70;;
22415;SDS011;12204;50.600;4.608;2023-04-06T10:27:01;4.35;;;1.83;;
22415;SDS011;12204;50.600;4.608;2023-04-06T10:32:06;4.50;;;1.80;;
22415;SDS011;12204;50.600;4.608;2023-04-06T10:37:14;4.07;;;1.60;;
22415;SDS011;12204;50.600;4.608;2023-04-06T10:42:23;3.60;;;1.40;;
22415;SDS011;12204;50.600;4.608;2023-04-06T10:47:27;3.90;;;1.50;;
22415;SDS011;12204;50.600;4.608;2023-04-06T10:52:44;4.88;;;1.70;;
22415;SDS011;12204;50.600;4.608;2023-04-06T10:57:49;4.07;;;1.50;;
22415;SDS011;12204;50.600;4.608;2023-04-06T11:02:58;3.55;;;1.38;;
22415;SDS011;12204;50.600;4.608;2023-04-06T11:08:04;3.85;;;1.58;;
22415;SDS011;12204;50.600;4.608;2023-04-06T11:13:08;4.78;;;1.60;;
22415;SDS011;12204;50.600;4.608;2023-04-06T11:18:12;4.45;;;1.50;;
22415;SDS011;12204;50.600;4.608;2023-04-06T11:23:24;3.90;;;1.55;;
22415;SDS011;12204;50.600;4.608;2023-04-06T11:28:28;4.22;;;1.48;;
22415;SDS011;12204;50.600;4.608;2023-04-06T11:33:35;3.63;;;1.40;;
22415;SDS011;12204;50.600;4.608;2023-04-06T11:38:41;3.47;;;1.50;;
22415;SDS011;12204;50.600;4.608;2023-04-06T11:43:45;4.30;;;1.55;;
22415;SDS011;12204;50.600;4.608;2023-04-06T11:48:50;3.47;;;1.50;;
22415;SDS011;12204;50.600;4.608;2023-04-06T11:53:55;3.55;;;1.50;;
22415;SDS011;12204;50.600;4.608;2023-04-06T11:58:58;3.55;;;1.50;;
22415;SDS011;12204;50.600;4.608;2023-04-06T12:04:02;3.53;;;1.40;;
22415;SDS011;12204;50.600;4.608;2023-04-06T12:09:07;4.20;;;1.70;;
22415;SDS011;12204;50.600;4.608;2023-04-06T12:14:11;3.88;;;1.58;;
22415;SDS011;12204;50.600;4.608;2023-04-06T12:19:15;3.75;;;1.52;;
22415;SDS011;12204;50.600;4.608;2023-04-06T12:24:20;3.72;;;1.40;;
22415;SDS011;12204;50.600;4.608;2023-04-06T12:29:24;3.85;;;1.60;;
22415;SDS011;12204;50.600;4.608;2023-04-06T12:34:27;3.55;;;1.50;;
22415;SDS011;12204;50.600;4.608;2023-04-06T12:39:32;4.28;;;1.50;;
22415;SDS011;12204;50.600;4.608;2023-04-06T12:44:36;4.25;;;1.52;;
22415;SDS011;12204;50.600;4.608;2023-04-06T12:49:39;3.83;;;1.60;;
22415;SDS011;12204;50.600;4.608;2023-04-06T12:54:45;3.50;;;1.45;;
22415;SDS011;12204;50.600;4.608;2023-04-06T12:59:51;3.55;;;1.40;;
22415;SDS011;12204;50.600;4.608;2023-04-06T13:04:55;4.22;;;1.52;;
22415;SDS011;12204;50.600;4.608;2023-04-06T13:10:00;4.00;;;1.40;;
22415;SDS011;12204;50.600;4.608;2023-04-06T13:15:04;3.63;;;1.38;;
22415;SDS011;12204;50.600;4.608;2023-04-06T13:20:09;3.22;;;1.30;;
22415;SDS011;12204;50.600;4.608;2023-04-06T13:25:14;3.13;;;1.23;;
22415;SDS011;12204;50.600;4.608;2023-04-06T13:30:18;4.50;;;1.50;;
22415;SDS011;12204;50.600;4.608;2023-04-06T13:35:22;4.55;;;1.50;;
22415;SDS011;12204;50.600;4.608;2023-04-06T13:40:27;3.08;;;1.35;;
22415;SDS011;12204;50.600;4.608;2023-04-06T13:45:31;3.38;;;1.33;;
22415;SDS011;12204;50.600;4.608;2023-04-06T13:50:35;4.75;;;1.48;;
22415;SDS011;12204;50.600;4.608;2023-04-06T13:55:40;3.05;;;1.30;;
22415;SDS011;12204;50.600;4.608;2023-04-06T14:00:43;3.65;;;1.48;;
22415;SDS011;12204;50.600;4.608;2023-04-06T14:05:47;3.25;;;1.27;;
22415;SDS011;12204;50.600;4.608;2023-04-06T14:10:52;3.70;;;1.30;;
22415;SDS011;12204;50.600;4.608;2023-04-06T14:15:56;3.65;;;1.50;;
22415;SDS011;12204;50.600;4.608;2023-04-06T14:21:00;3.22;;;1.30;;
22415;SDS011;12204;50.600;4.608;2023-04-06T14:26:06;3.47;;;1.38;;
22415;SDS011;12204;50.600;4.608;2023-04-06T14:31:11;3.17;;;1.30;;
22415;SDS011;12204;50.600;4.608;2023-04-06T14:36:18;3.95;;;1.45;;
22415;SDS011;12204;50.600;4.608;2023-04-06T14:41:23;3.60;;;1.33;;
22415;SDS011;12204;50.600;4.608;2023-04-06T14:46:27;4.25;;;1.42;;
22415;SDS011;12204;50.600;4.608;2023-04-06T14:51:30;3.22;;;1.30;;
22415;SDS011;12204;50.600;4.608;2023-04-06T14:56:37;3.22;;;1.30;;
22415;SDS011;12204;50.600;4.608;2023-04-06T15:01:41;3.38;;;1.38;;
22415;SDS011;12204;50.600;4.608;2023-04-06T15:06:44;3.40;;;1.30;;
22415;SDS011;12204;50.600;4.608;2023-04-06T15:11:49;2.78;;;1.23;;
22415;SDS011;12204;50.600;4.608;2023-04-06T15:16:53;3.08;;;1.30;;
22415;SDS011;12204;50.600;4.608;2023-04-06T15:21:56;2.90;;;1.15;;
22415;SDS011;12204;50.600;4.608;2023-04-06T15:27:02;2.80;;;1.27;;
22415;SDS011;12204;50.600;4.608;2023-04-06T15:32:06;2.63;;;1.10;;
22415;SDS011;12204;50.600;4.608;2023-04-06T15:37:09;2.90;;;1.10;;
22415;SDS011;12204;50.600;4.608;2023-04-06T15:42:14;3.08;;;1.35;;
22415;SDS011;12204;50.600;4.608;2023-04-06T15:47:18;3.40;;;1.30;;
22415;SDS011;12204;50.600;4.608;2023-04-06T15:52:21;2.45;;;1.20;;
22415;SDS011;12204;50.600;4.608;2023-04-06T15:57:26;2.83;;;1.40;;
22415;SDS011;12204;50.600;4.608;2023-04-06T16:02:29;3.67;;;1.30;;
22415;SDS011;12204;50.600;4.608;2023-04-06T16:07:33;3.70;;;1.30;;
22415;SDS011;12204;50.600;4.608;2023-04-06T16:12:38;2.95;;;1.20;;
22415;SDS011;12204;50.600;4.608;2023-04-06T16:17:42;3.97;;;1.30;;
22415;SDS011;12204;50.600;4.608;2023-04-06T16:22:47;3.05;;;1.20;;
22415;SDS011;12204;50.600;4.608;2023-04-06T16:27:52;3.50;;;1.50;;
22415;SDS011;12204;50.600;4.608;2023-04-06T16:32:56;3.22;;;1.30;;
22415;SDS011;12204;50.600;4.608;2023-04-06T16:38:00;3.53;;;1.20;;
22415;SDS011;12204;50.600;4.608;2023-04-06T16:43:04;3.72;;;1.13;;
22415;SDS011;12204;50.600;4.608;2023-04-06T16:48:08;2.50;;;1.20;;
22415;SDS011;12204;50.600;4.608;2023-04-06T16:53:13;3.67;;;1.40;;
22415;SDS011;12204;50.600;4.608;2023-04-06T16:58:18;3.55;;;1.38;;
22415;SDS011;12204;50.600;4.608;2023-04-06T17:03:21;3.10;;;1.40;;
22415;SDS011;12204;50.600;4.608;2023-04-06T17:08:26;3.70;;;1.20;;
22415;SDS011;12204;50.600;4.608;2023-04-06T17:13:31;3.95;;;1.35;;
22415;SDS011;12204;50.600;4.608;2023-04-06T17:18:34;3.78;;;1.50;;
22415;SDS011;12204;50.600;4.608;2023-04-06T17:23:38;3.30;;;1.17;;
22415;SDS011;12204;50.600;4.608;2023-04-06T17:28:43;3.35;;;1.30;;
22415;SDS011;12204;50.600;4.608;2023-04-06T17:33:47;3.08;;;1.20;;
22415;SDS011;12204;50.600;4.608;2023-04-06T17:38:50;3.28;;;1.25;;
22415;SDS011;12204;50.600;4.608;2023-04-06T17:43:55;3.40;;;1.30;;
22415;SDS011;12204;50.600;4.608;2023-04-06T17:48:58;2.45;;;1.10;;
22415;SDS011;12204;50.600;4.608;2023-04-06T17:54:02;2.85;;;1.20;;
22415;SDS011;12204;50.600;4.608;2023-04-06T17:59:07;3.03;;;1.30;;
22415;SDS011;12204;50.600;4.608;2023-04-06T18:04:11;3.45;;;1.25;;
22415;SDS011;12204;50.600;4.608;2023-04-06T18:09:15;4.22;;;1.10;;
22415;SDS011;12204;50.600;4.608;2023-04-06T18:14:20;2.20;;;1.08;;
22415;SDS011;12204;50.600;4.608;2023-04-06T18:19:23;3.22;;;1.30;;
22415;SDS011;12204;50.600;4.608;2023-04-06T18:24:29;4.80;;;1.20;;
22415;SDS011;12204;50.600;4.608;2023-04-06T18:29:43;3.53;;;1.30;;
22415;SDS011;12204;50.600;4.608;2023-04-06T18:34:47;3.28;;;1.33;;
22415;SDS011;12204;50.600;4.608;2023-04-06T18:39:51;3.45;;;1.30;;
22415;SDS011;12204;50.600;4.608;2023-04-06T18:44:56;3.08;;;1.17;;
22415;SDS011;12204;50.600;4.608;2023-04-06T18:49:59;3.42;;;1.42;;
22415;SDS011;12204;50.600;4.608;2023-04-06T18:55:03;5.28;;;1.48;;
22415;SDS011;12204;50.600;4.608;2023-04-06T19:00:11;3.85;;;1.25;;
22415;SDS011;12204;50.600;4.608;2023-04-06T19:05:17;3.40;;;1.10;;
22415;SDS011;12204;50.600;4.608;2023-04-06T19:10:22;2.38;;;1.10;;
22415;SDS011;12204;50.600;4.608;2023-04-06T19:15:27;3.70;;;1.30;;
22415;SDS011;12204;50.600;4.608;2023-04-06T19:20:32;3.20;;;1.38;;
22415;SDS011;12204;50.600;4.608;2023-04-06T19:25:35;3.05;;;1.20;;
22415;SDS011;12204;50.600;4.608;2023-04-06T19:30:41;3.42;;;1.23;;
22415;SDS011;12204;50.600;4.608;2023-04-06T19:35:45;4.65;;;1.40;;
22415;SDS011;12204;50.600;4.608;2023-04-06T19:40:49;4.60;;;1.35;;
22415;SDS011;12204;50.600;4.608;2023-04-06T19:45:54;3.55;;;1.20;;
22415;SDS011;12204;50.600;4.608;2023-04-06T19:50:57;3.55;;;1.30;;
22415;SDS011;12204;50.600;4.608;2023-04-06T19:56:01;3.00;;;1.17;;
22415;SDS011;12204;50.600;4.608;2023-04-06T20:01:06;4.30;;;1.30;;
22415;SDS011;12204;50.600;4.608;2023-04-06T20:06:09;3.35;;;1.23;;
22415;SDS011;12204;50.600;4.608;2023-04-06T20:11:14;3.78;;;1.30;;
22415;SDS011;12204;50.600;4.608;2023-04-06T20:16:19;4.57;;;1.30;;
22415;SDS011;12204;50.600;4.608;2023-04-06T20:21:23;4.28;;;1.42;;
22415;SDS011;12204;50.600;4.608;2023-04-06T20:26:27;3.15;;;1.20;;
22415;SDS011;12204;50.600;4.608;2023-04-06T20:31:32;3.42;;;1.15;;
22415;SDS011;12204;50.600;4.608;2023-04-06T20:36:36;3.78;;;1.33;;
22415;SDS011;12204;50.600;4.608;2023-04-06T20:41:40;3.55;;;1.42;;
22415;SDS011;12204;50.600;4.608;2023-04-06T20:46:45;4.45;;;1.48;;
22415;SDS011;12204;50.600;4.608;2023-04-06T20:51:50;4.57;;;1.42;;
22415;SDS011;12204;50.600;4.608;2023-04-06T20:56:53;3.92;;;1.38;;
22415;SDS011;12204;50.600;4.608;2023-04-06T21:02:01;3.80;;;1.30;;
22415;SDS011;12204;50.600;4.608;2023-04-06T21:07:04;4.80;;;1.40;;
22415;SDS011;12204;50.600;4.608;2023-04-06T21:12:09;3.47;;;1.38;;
22415;SDS011;12204;50.600;4.608;2023-04-06T21:17:13;5.20;;;1.67;;
22415;SDS011;12204;50.600;4.608;2023-04-06T21:22:17;5.57;;;1.50;;
22415;SDS011;12204;50.600;4.608;2023-04-06T21:27:20;5.15;;;1.40;;
22415;SDS011;12204;50.600;4.608;2023-04-06T21:32:26;4.18;;;1.40;;
22415;SDS011;12204;50.600;4.608;2023-04-06T21:37:29;4.97;;;1.60;;
22415;SDS011;12204;50.600;4.608;2023-04-06T21:42:32;5.85;;;1.70;;
22415;SDS011;12204;50.600;4.608;2023-04-06T21:47:38;4.93;;;1.60;;
22415;SDS011;12204;50.600;4.608;2023-04-06T21:52:41;4.97;;;1.63;;
22415;SDS011;12204;50.600;4.608;2023-04-06T21:57:45;4.60;;;1.65;;
22415;SDS011;12204;50.600;4.608;2023-04-06T22:02:50;5.72;;;1.60;;
22415;SDS011;12204;50.600;4.608;2023-04-06T22:07:54;5.25;;;1.77;;
22415;SDS011;12204;50.600;4.608;2023-04-06T22:12:57;5.85;;;1.75;;
22415;SDS011;12204;50.600;4.608;2023-04-06T22:18:02;4.80;;;1.65;;
22415;SDS011;12204;50.600;4.608;2023-04-06T22:23:06;6.00;;;1.90;;
22415;SDS011;12204;50.600;4.608;2023-04-06T22:28:09;5.25;;;1.65;;
22415;SDS011;12204;50.600;4.608;2023-04-06T22:33:14;5.20;;;1.77;;
22415;SDS011;12204;50.600;4.608;2023-04-06T22:38:17;4.85;;;1.80;;
22415;SDS011;12204;50.600;4.608;2023-04-06T22:43:21;4.75;;;1.63;;
22415;SDS011;12204;50.600;4.608;2023-04-06T22:48:26;4.18;;;1.55;;
22415;SDS011;12204;50.600;4.608;2023-04-06T22:53:29;5.70;;;1.73;;
22415;SDS011;12204;50.600;4.608;2023-04-06T22:58:33;5.35;;;1.70;;
22415;SDS011;12204;50.600;4.608;2023-04-06T23:03:38;4.93;;;1.70;;
22415;SDS011;12204;50.600;4.608;2023-04-06T23:08:42;4.72;;;1.90;;
22415;SDS011;12204;50.600;4.608;2023-04-06T23:13:47;5.38;;;1.90;;
22415;SDS011;12204;50.600;4.608;2023-04-06T23:18:52;4.85;;;1.80;;
22415;SDS011;12204;50.600;4.608;2023-04-06T23:23:56;5.20;;;1.70;;
22415;SDS011;12204;50.600;4.608;2023-04-06T23:29:00;5.53;;;1.80;;
22415;SDS011;12204;50.600;4.608;2023-04-06T23:34:05;6.45;;;1.90;;
22415;SDS011;12204;50.600;4.608;2023-04-06T23:39:08;5.00;;;1.98;;
22415;SDS011;12204;50.600;4.608;2023-04-06T23:44:11;5.43;;;2.00;;
22415;SDS011;12204;50.600;4.608;2023-04-06T23:49:17;5.22;;;1.90;;
22415;SDS011;12204;50.600;4.608;2023-04-06T23:54:20;4.72;;;1.90;;
22415;SDS011;12204;50.600;4.608;2023-04-06T23:59:23;5.35;;;2.03;;
